createdAt,value
2024-02-18T00:01:41.656Z,4.37
2024-02-18T00:04:08.602Z,4.60
2024-02-18T00:06:35.248Z,5.57
2024-02-18T00:09:01.690Z,4.10
2024-02-18T00:11:28.159Z,4.43
2024-02-18T00:13:55.571Z,4.10
2024-02-18T00:16:22.160Z,3.80
2024-02-18T00:18:48.821Z,4.37
2024-02-18T00:21:19.317Z,3.83
2024-02-18T00:23:46.275Z,4.07
2024-02-18T00:26:14.665Z,4.63
2024-02-18T00:28:41.891Z,4.47
2024-02-18T00:31:08.321Z,4.20
2024-02-18T00:33:34.807Z,4.00
2024-02-18T00:36:01.286Z,4.00
2024-02-18T00:38:28.863Z,3.87
2024-02-18T00:40:56.301Z,4.90
2024-02-18T00:43:22.706Z,3.83
2024-02-18T00:45:49.149Z,3.87
2024-02-18T00:48:18.682Z,4.00
2024-02-18T00:50:45.130Z,4.70
2024-02-18T00:53:12.010Z,4.27
2024-02-18T00:55:44.120Z,3.70
2024-02-18T00:58:14.332Z,3.87
2024-02-18T01:00:41.670Z,4.00
2024-02-18T01:03:08.575Z,5.03
2024-02-18T01:05:35.438Z,3.97
2024-02-18T01:08:01.841Z,4.10
2024-02-18T01:10:28.185Z,3.57
2024-02-18T01:12:55.596Z,3.80
2024-02-18T01:15:22.280Z,3.97
2024-02-18T01:17:48.717Z,3.83
2024-02-18T01:20:16.327Z,4.60
2024-02-18T01:22:42.735Z,4.07
2024-02-18T01:25:09.729Z,4.43
2024-02-18T01:27:36.198Z,4.00
2024-02-18T01:30:02.652Z,3.90
2024-02-18T01:32:29.077Z,3.93
2024-02-18T01:34:56.469Z,3.57
2024-02-18T01:37:22.898Z,4.33
2024-02-18T01:39:49.306Z,4.00
2024-02-18T01:42:16.777Z,3.50
2024-02-18T01:44:43.587Z,3.47
2024-02-18T01:47:10.498Z,3.80
2024-02-18T01:49:37.022Z,3.60
2024-02-18T01:52:03.785Z,4.33
2024-02-18T01:54:34.441Z,4.33
2024-02-18T01:57:02.630Z,3.63
2024-02-18T01:59:30.650Z,3.80
2024-02-18T02:01:57.709Z,3.73
2024-02-18T02:04:24.547Z,3.77
2024-02-18T02:06:54.155Z,3.63
2024-02-18T02:09:22.098Z,3.93
2024-02-18T02:11:48.753Z,5.23
2024-02-18T02:14:17.307Z,4.23
2024-02-18T02:16:43.704Z,3.97
2024-02-18T02:19:10.287Z,4.10
2024-02-18T02:21:36.771Z,3.67
2024-02-18T02:24:03.338Z,4.17
2024-02-18T02:26:32.766Z,4.57
2024-02-18T02:29:12.902Z,3.67
2024-02-18T02:31:42.469Z,4.63
2024-02-18T02:34:09.042Z,5.60
2024-02-18T02:36:35.516Z,4.20
2024-02-18T02:39:03.354Z,4.17
2024-02-18T02:41:29.758Z,3.73
2024-02-18T02:43:56.125Z,4.70
2024-02-18T02:46:22.525Z,4.10
2024-02-18T02:48:49.023Z,3.60
2024-02-18T02:51:15.408Z,4.10
2024-02-18T02:53:41.765Z,3.40
2024-02-18T02:56:08.573Z,4.13
2024-02-18T02:58:35.194Z,4.07
2024-02-18T03:01:01.656Z,3.83
2024-02-18T03:03:28.056Z,4.60
2024-02-18T03:05:54.572Z,4.27
2024-02-18T03:08:21.632Z,4.27
2024-02-18T03:10:47.988Z,4.43
2024-02-18T03:13:14.356Z,4.03
2024-02-18T03:15:40.846Z,3.33
2024-02-18T03:18:07.334Z,3.60
2024-02-18T03:20:34.024Z,3.73
2024-02-18T03:23:00.367Z,4.17
2024-02-18T03:25:27.847Z,3.83
2024-02-18T03:27:54.256Z,3.67
2024-02-18T03:30:21.540Z,4.37
2024-02-18T03:32:47.957Z,3.50
2024-02-18T03:35:15.875Z,3.60
2024-02-18T03:37:42.257Z,3.43
2024-02-18T03:40:09.931Z,4.00
2024-02-18T03:42:36.360Z,4.40
2024-02-18T03:45:02.727Z,3.37
2024-02-18T03:47:29.151Z,4.20
2024-02-18T03:49:56.182Z,3.87
2024-02-18T03:52:22.577Z,3.80
2024-02-18T03:54:48.971Z,3.73
2024-02-18T03:57:15.329Z,3.80
2024-02-18T03:59:42.929Z,3.53
2024-02-18T04:02:09.262Z,3.50
2024-02-18T04:04:35.888Z,3.70
2024-02-18T04:07:02.422Z,3.70
2024-02-18T04:09:28.845Z,3.77
2024-02-18T04:11:55.455Z,4.00
2024-02-18T04:14:21.902Z,4.10
2024-02-18T04:16:48.307Z,3.67
2024-02-18T04:19:14.698Z,3.93
2024-02-18T04:21:41.109Z,3.17
2024-02-18T04:24:07.484Z,3.37
2024-02-18T04:26:33.874Z,4.73
2024-02-18T04:29:00.215Z,4.10
2024-02-18T04:31:26.581Z,4.13
2024-02-18T04:33:53.060Z,3.80
2024-02-18T04:36:19.463Z,3.80
2024-02-18T04:38:48.815Z,3.80
2024-02-18T04:41:15.735Z,3.37
2024-02-18T04:43:42.109Z,3.57
2024-02-18T04:46:08.510Z,3.93
2024-02-18T04:48:38.534Z,3.80
2024-02-18T04:51:05.056Z,4.03
2024-02-18T04:53:31.402Z,4.03
2024-02-18T04:55:57.862Z,3.70
2024-02-18T04:58:24.391Z,4.57
2024-02-18T05:00:51.670Z,4.73
2024-02-18T05:03:18.054Z,4.00
2024-02-18T05:05:44.523Z,4.40
2024-02-18T05:08:10.923Z,3.17
2024-02-18T05:10:38.200Z,4.00
2024-02-18T05:13:04.664Z,4.10
2024-02-18T05:15:31.087Z,4.50
2024-02-18T05:17:57.494Z,4.47
2024-02-18T05:20:25.066Z,4.23
2024-02-18T05:22:52.429Z,4.87
2024-02-18T05:25:18.840Z,4.43
2024-02-18T05:27:45.204Z,5.27
2024-02-18T05:30:12.602Z,5.40
2024-02-18T05:32:39.037Z,5.33
2024-02-18T05:35:09.135Z,5.00
2024-02-18T05:37:37.750Z,5.83
2024-02-18T05:40:05.426Z,5.50
2024-02-18T05:42:31.870Z,5.93
2024-02-18T05:44:58.251Z,5.27
2024-02-18T05:47:24.661Z,6.10
2024-02-18T05:49:51.519Z,6.10
2024-02-18T05:52:17.915Z,6.23
2024-02-18T05:54:44.413Z,6.30
2024-02-18T05:57:10.765Z,6.13
2024-02-18T05:59:37.100Z,6.70
2024-02-18T06:02:03.564Z,6.10
2024-02-18T06:04:30.182Z,6.73
2024-02-18T06:06:58.643Z,7.67
2024-02-18T06:09:25.289Z,7.93
2024-02-18T06:11:52.813Z,8.47
2024-02-18T06:14:19.718Z,8.00
2024-02-18T06:16:46.090Z,9.03
2024-02-18T06:19:15.689Z,9.00
2024-02-18T06:21:43.716Z,10.17
2024-02-18T06:24:10.211Z,10.33
2024-02-18T06:26:40.566Z,9.47
2024-02-18T06:29:07.168Z,11.00
2024-02-18T06:31:33.507Z,10.63
2024-02-18T06:33:59.951Z,11.10
2024-02-18T06:36:27.030Z,12.23
2024-02-18T06:38:53.435Z,12.53
2024-02-18T06:41:19.900Z,13.90
2024-02-18T06:43:46.271Z,14.47
2024-02-18T06:46:13.627Z,14.87
2024-02-18T06:48:40.351Z,16.30
2024-02-18T06:51:07.887Z,16.43
2024-02-18T06:53:34.225Z,17.40
2024-02-18T06:56:00.563Z,18.23
2024-02-18T06:58:26.957Z,17.70
2024-02-18T07:00:53.404Z,19.70
2024-02-18T07:03:19.795Z,19.70
2024-02-18T07:05:46.228Z,19.30
2024-02-18T07:08:13.754Z,19.87
2024-02-18T07:10:40.106Z,20.03
2024-02-18T07:13:06.744Z,21.50
2024-02-18T07:15:33.200Z,20.43
2024-02-18T07:17:59.596Z,22.07
2024-02-18T07:20:26.455Z,23.83
2024-02-18T07:22:52.850Z,23.37
2024-02-18T07:25:19.212Z,23.90
2024-02-18T07:27:45.637Z,24.50
2024-02-18T07:30:12.605Z,22.87
2024-02-18T07:32:39.045Z,23.37
2024-02-18T07:35:05.963Z,24.57
2024-02-18T07:37:32.359Z,24.63
2024-02-18T07:39:58.864Z,25.70
2024-02-18T07:42:26.966Z,23.93
2024-02-18T07:44:53.321Z,24.20
2024-02-18T07:47:19.628Z,25.77
2024-02-18T07:49:47.464Z,24.40
2024-02-18T07:52:13.913Z,24.47
2024-02-18T07:54:45.962Z,25.87
2024-02-18T07:57:12.558Z,24.57
2024-02-18T07:59:38.909Z,26.10
2024-02-18T08:02:05.735Z,26.33
2024-02-18T08:04:32.487Z,26.93
2024-02-18T08:06:59.059Z,26.60
2024-02-18T08:09:25.514Z,26.27
2024-02-18T08:11:51.969Z,26.03
2024-02-18T08:14:18.447Z,25.70
2024-02-18T08:16:44.835Z,26.10
2024-02-18T08:19:11.366Z,27.33
2024-02-18T08:21:37.916Z,25.63
2024-02-18T08:24:04.580Z,27.47
2024-02-18T08:26:30.914Z,27.07
2024-02-18T08:28:57.280Z,25.70
2024-02-18T08:31:23.768Z,27.07
2024-02-18T08:33:50.743Z,27.13
2024-02-18T08:36:18.056Z,27.57
2024-02-18T08:38:50.793Z,28.73
2024-02-18T08:41:17.219Z,27.47
2024-02-18T08:43:43.739Z,28.63
2024-02-18T08:46:10.964Z,27.50
2024-02-18T08:48:38.296Z,27.30
2024-02-18T08:51:09.513Z,27.93
2024-02-18T08:53:37.645Z,26.97
2024-02-18T08:56:05.136Z,28.47
2024-02-18T08:58:32.929Z,27.90
2024-02-18T09:00:59.350Z,28.70
2024-02-18T09:03:25.952Z,27.70
2024-02-18T09:05:52.371Z,29.20
2024-02-18T09:08:20.566Z,28.10
2024-02-18T09:10:47.133Z,28.80
2024-02-18T09:13:14.933Z,28.87
2024-02-18T09:15:41.589Z,29.37
2024-02-18T09:18:08.652Z,27.20
2024-02-18T09:20:35.282Z,25.93
2024-02-18T09:23:01.672Z,26.70
2024-02-18T09:25:28.339Z,25.17
2024-02-18T09:27:54.692Z,24.70
2024-02-18T09:30:21.101Z,25.17
2024-02-18T09:32:47.454Z,25.00
2024-02-18T09:35:14.205Z,24.30
2024-02-18T09:37:40.876Z,26.20
2024-02-18T09:40:09.932Z,24.57
2024-02-18T09:42:40.582Z,23.27
2024-02-18T09:45:08.776Z,23.43
2024-02-18T09:47:36.264Z,24.43
2024-02-18T09:50:02.836Z,23.97
2024-02-18T09:52:29.345Z,25.30
2024-02-18T09:54:56.008Z,24.70
2024-02-18T09:57:22.356Z,26.13
2024-02-18T09:59:48.709Z,24.47
2024-02-18T10:02:15.163Z,24.53
2024-02-18T10:04:46.819Z,22.53
2024-02-18T10:07:15.889Z,23.37
2024-02-18T10:09:44.001Z,23.43
2024-02-18T10:12:12.012Z,23.37
2024-02-18T10:14:38.522Z,23.37
2024-02-18T10:17:05.319Z,21.27
2024-02-18T10:19:31.772Z,21.40
2024-02-18T10:22:01.265Z,21.60
2024-02-18T10:24:28.397Z,21.43
2024-02-18T10:26:55.409Z,21.53
2024-02-18T10:29:21.773Z,20.37
2024-02-18T10:31:48.163Z,18.83
2024-02-18T10:34:14.755Z,19.47
2024-02-18T10:36:48.050Z,19.23
2024-02-18T10:39:17.620Z,18.40
2024-02-18T10:41:51.829Z,18.87
2024-02-18T10:44:18.668Z,19.10
2024-02-18T10:46:48.805Z,17.97
2024-02-18T10:49:26.876Z,19.53
2024-02-18T10:52:07.143Z,20.53
2024-02-18T10:54:45.759Z,19.30
2024-02-18T10:57:12.977Z,20.03
2024-02-18T10:59:49.086Z,20.03
2024-02-18T11:02:21.009Z,18.70
2024-02-18T11:04:47.983Z,19.03
2024-02-18T11:07:16.514Z,19.53
2024-02-18T11:09:43.419Z,19.10
2024-02-18T11:12:10.492Z,19.47
2024-02-18T11:14:38.354Z,17.83
2024-02-18T11:17:04.967Z,17.97
2024-02-18T11:19:33.040Z,17.80
2024-02-18T11:22:00.354Z,18.17
2024-02-18T11:24:26.804Z,18.07
2024-02-18T11:26:53.323Z,17.17
2024-02-18T11:29:19.668Z,17.70
2024-02-18T11:31:46.020Z,17.77
2024-02-18T11:34:12.856Z,16.87
2024-02-18T11:36:39.358Z,17.07
2024-02-18T11:39:07.644Z,14.97
2024-02-18T11:41:35.585Z,18.43
2024-02-18T11:44:08.786Z,16.17
2024-02-18T11:46:39.235Z,16.33
2024-02-18T11:49:06.397Z,17.30
2024-02-18T11:51:34.664Z,15.77
2024-02-18T11:54:01.171Z,16.07
2024-02-18T11:56:27.648Z,16.27
2024-02-18T11:58:56.271Z,15.20
2024-02-18T12:01:25.001Z,17.10
2024-02-18T12:03:52.588Z,15.67
2024-02-18T12:06:19.115Z,15.63
2024-02-18T12:08:45.554Z,16.30
2024-02-18T12:11:12.081Z,16.27
2024-02-18T12:13:38.493Z,17.00
2024-02-18T12:16:05.736Z,18.17
2024-02-18T12:18:32.649Z,21.23
2024-02-18T12:20:59.300Z,15.40
2024-02-18T12:23:26.041Z,14.80
2024-02-18T12:25:53.869Z,14.23
2024-02-18T12:28:20.692Z,14.13
2024-02-18T12:30:47.961Z,13.63
2024-02-18T12:33:15.722Z,15.73
2024-02-18T12:35:42.684Z,13.20
2024-02-18T12:38:10.105Z,14.23
2024-02-18T12:40:38.826Z,13.70
2024-02-18T12:45:44.175Z,14.27
2024-02-18T12:48:15.933Z,14.47
2024-02-18T12:50:43.498Z,15.00
2024-02-18T12:53:10.507Z,14.57
2024-02-18T12:55:38.421Z,13.27
2024-02-18T12:58:05.029Z,14.10
2024-02-18T13:00:32.154Z,13.20
2024-02-18T13:02:58.791Z,14.00
2024-02-18T13:05:26.489Z,12.77
2024-02-18T13:07:55.196Z,13.23
2024-02-18T13:10:22.087Z,12.50
2024-02-18T13:12:50.052Z,14.67
2024-02-18T13:15:17.308Z,12.63
2024-02-18T13:17:49.374Z,12.57
2024-02-18T13:20:15.836Z,13.93
2024-02-18T13:22:43.846Z,13.13
2024-02-18T13:25:10.769Z,11.83
2024-02-18T13:27:37.403Z,11.50
2024-02-18T13:30:04.381Z,13.33
2024-02-18T13:32:30.840Z,12.77
2024-02-18T13:34:57.411Z,12.17
2024-02-18T13:37:24.046Z,12.50
2024-02-18T13:39:50.481Z,12.63
2024-02-18T13:42:21.642Z,12.37
2024-02-18T13:44:48.573Z,12.60
2024-02-18T13:47:15.436Z,12.27
2024-02-18T13:49:42.035Z,12.27
2024-02-18T13:52:08.947Z,11.90
2024-02-18T13:54:35.409Z,11.47
2024-02-18T13:57:01.807Z,10.17
2024-02-18T13:59:29.006Z,11.70
2024-02-18T14:01:55.479Z,12.10
2024-02-18T14:04:22.030Z,11.90
2024-02-18T14:06:48.484Z,11.07
2024-02-18T14:09:14.876Z,11.80
2024-02-18T14:11:43.116Z,11.17
2024-02-18T14:14:10.238Z,11.77
2024-02-18T14:16:37.246Z,10.00
2024-02-18T14:19:04.503Z,9.53
2024-02-18T14:21:31.705Z,11.43
2024-02-18T14:23:58.390Z,10.37
2024-02-18T14:26:24.872Z,11.90
2024-02-18T14:28:51.298Z,9.40
2024-02-18T14:31:18.445Z,9.03
2024-02-18T14:33:45.679Z,10.80
2024-02-18T14:36:13.596Z,9.73
2024-02-18T14:38:40.359Z,8.10
2024-02-18T14:41:07.263Z,9.77
2024-02-18T14:43:35.664Z,8.57
2024-02-18T14:46:04.083Z,8.60
2024-02-18T14:48:31.028Z,8.40
2024-02-18T14:50:57.923Z,8.10
2024-02-18T14:53:24.582Z,7.13
2024-02-18T14:55:52.779Z,7.70
2024-02-18T14:58:19.165Z,8.87
2024-02-18T15:00:47.567Z,8.00
2024-02-18T15:03:14.365Z,7.87
2024-02-18T15:05:40.904Z,7.40
2024-02-18T15:08:07.584Z,7.07
2024-02-18T15:10:34.079Z,9.33
2024-02-18T15:13:00.688Z,7.93
2024-02-18T15:15:27.226Z,6.17
2024-02-18T15:17:53.645Z,7.23
2024-02-18T15:20:20.178Z,6.70
2024-02-18T15:22:46.691Z,6.33
2024-02-18T15:25:13.313Z,6.70
2024-02-18T15:27:39.789Z,6.80
2024-02-18T15:30:07.320Z,7.00
2024-02-18T15:32:33.744Z,8.00
2024-02-18T15:35:00.358Z,7.33
2024-02-18T15:37:26.862Z,7.90
2024-02-18T15:39:53.219Z,6.70
2024-02-18T15:42:19.633Z,8.17
2024-02-18T15:44:45.994Z,7.10
2024-02-18T15:47:12.356Z,7.27
2024-02-18T15:49:39.110Z,7.80
2024-02-18T15:52:05.624Z,8.20
2024-02-18T15:54:32.026Z,8.33
2024-02-18T15:56:58.388Z,9.23
2024-02-18T15:59:25.082Z,11.47
2024-02-18T16:01:53.872Z,9.70
2024-02-18T16:04:20.950Z,8.30
2024-02-18T16:06:47.491Z,9.40
2024-02-18T16:09:13.857Z,10.17
2024-02-18T16:11:40.336Z,9.90
2024-02-18T16:14:06.767Z,9.93
2024-02-18T16:16:33.402Z,9.13
2024-02-18T16:18:59.957Z,11.37
2024-02-18T16:21:26.409Z,11.33
2024-02-18T16:23:59.504Z,11.83
2024-02-18T16:26:27.081Z,11.63
2024-02-18T16:28:53.441Z,11.47
2024-02-18T16:31:20.178Z,11.20
2024-02-18T16:33:46.937Z,12.40
2024-02-18T16:36:13.487Z,11.57
2024-02-18T16:38:39.842Z,11.70
2024-02-18T16:41:06.202Z,11.73
2024-02-18T16:43:32.576Z,13.37
2024-02-18T16:46:02.488Z,12.37
2024-02-18T16:48:31.931Z,11.43
2024-02-18T16:50:58.511Z,13.20
2024-02-18T16:53:24.894Z,14.10
2024-02-18T16:55:53.179Z,13.37
2024-02-18T16:58:19.895Z,26.23
2024-02-18T17:00:46.392Z,14.50
2024-02-18T17:03:12.928Z,15.40
2024-02-18T17:05:39.388Z,14.80
2024-02-18T17:08:06.230Z,16.47
2024-02-18T17:10:32.908Z,13.57
2024-02-18T17:12:59.288Z,13.20
2024-02-18T17:15:25.785Z,15.03
2024-02-18T17:17:52.197Z,11.27
2024-02-18T17:20:19.691Z,11.80
2024-02-18T17:22:46.270Z,8.00
2024-02-18T17:25:13.046Z,7.83
2024-02-18T17:27:39.562Z,5.80
2024-02-18T17:30:07.008Z,7.37
2024-02-18T17:32:33.637Z,8.27
2024-02-18T17:35:05.080Z,9.53
2024-02-18T17:37:32.118Z,10.17
2024-02-18T17:39:59.168Z,9.70
2024-02-18T17:42:25.587Z,8.97
2024-02-18T17:44:54.865Z,7.97
2024-02-18T17:47:21.563Z,7.73
2024-02-18T17:49:47.931Z,8.27
2024-02-18T17:52:16.919Z,7.33
2024-02-18T17:54:43.539Z,7.23
2024-02-18T17:57:09.889Z,7.00
2024-02-18T17:59:38.885Z,7.20
2024-02-18T18:02:08.354Z,8.60
2024-02-18T18:04:34.827Z,7.20
2024-02-18T18:07:01.884Z,6.03
2024-02-18T18:09:31.199Z,6.93
2024-02-18T18:11:58.063Z,7.90
2024-02-18T18:14:24.410Z,7.43
2024-02-18T18:16:50.761Z,8.53
2024-02-18T18:19:17.286Z,7.70
2024-02-18T18:21:43.764Z,8.03
2024-02-18T18:24:10.336Z,7.57
2024-02-18T18:26:36.722Z,8.77
2024-02-18T18:29:03.573Z,8.03
2024-02-18T18:31:29.998Z,8.17
2024-02-18T18:33:56.505Z,7.80
2024-02-18T18:36:22.957Z,8.63
2024-02-18T18:38:49.314Z,9.13
2024-02-18T18:41:15.712Z,9.17
2024-02-18T18:43:42.755Z,6.57
2024-02-18T18:46:09.181Z,8.23
2024-02-18T18:48:35.585Z,5.13
2024-02-18T18:51:02.002Z,4.97
2024-02-18T18:53:30.483Z,4.80
2024-02-18T18:55:56.851Z,5.13
2024-02-18T18:58:23.282Z,4.97
2024-02-18T19:00:49.701Z,4.20
2024-02-18T19:03:16.186Z,4.60
2024-02-18T19:05:47.114Z,3.07
2024-02-18T19:08:13.607Z,3.13
2024-02-18T19:10:40.132Z,3.37
2024-02-18T19:13:18.580Z,4.13
2024-02-18T19:15:56.186Z,3.57
2024-02-18T19:18:22.758Z,3.50
2024-02-18T19:20:49.244Z,3.43
2024-02-18T19:23:17.226Z,4.33
2024-02-18T19:25:43.609Z,5.03
2024-02-18T19:28:11.714Z,5.20
2024-02-18T19:30:38.403Z,5.57
2024-02-18T19:33:05.991Z,6.50
2024-02-18T19:35:32.425Z,5.70
2024-02-18T19:37:58.756Z,6.00
2024-02-18T19:40:27.093Z,6.77
2024-02-18T19:42:53.630Z,6.43
2024-02-18T19:45:20.062Z,5.90
2024-02-18T19:47:46.522Z,6.60
2024-02-18T19:50:13.064Z,8.50
2024-02-18T19:52:39.615Z,8.77
2024-02-18T19:55:08.402Z,7.80
2024-02-18T19:57:35.531Z,8.40
2024-02-18T20:00:02.519Z,8.33
2024-02-18T20:02:28.850Z,9.27
2024-02-18T20:04:55.278Z,8.77
2024-02-18T20:07:22.700Z,10.70
2024-02-18T20:09:49.306Z,10.23
2024-02-18T20:12:15.697Z,11.63
2024-02-18T20:14:42.200Z,13.60
2024-02-18T20:17:16.085Z,11.40
2024-02-18T20:19:43.821Z,10.90
2024-02-18T20:22:11.009Z,10.90
2024-02-18T20:24:48.778Z,12.43
2024-02-18T20:27:15.188Z,11.33
2024-02-18T20:29:41.639Z,16.80
2024-02-18T20:32:08.131Z,11.80
2024-02-18T20:34:41.774Z,12.40
2024-02-18T20:37:08.498Z,11.83
2024-02-18T20:39:35.978Z,11.50
2024-02-18T20:42:02.632Z,10.77
2024-02-18T20:44:29.643Z,13.67
2024-02-18T20:46:56.253Z,18.33
2024-02-18T20:49:23.684Z,15.50
2024-02-18T20:51:50.330Z,15.90
2024-02-18T20:54:16.730Z,12.20
2024-02-18T20:56:43.321Z,15.47
2024-02-18T20:59:09.715Z,14.63
2024-02-18T21:01:36.297Z,16.83
2024-02-18T21:04:04.924Z,18.07
2024-02-18T21:06:33.591Z,17.23
2024-02-18T21:09:01.500Z,19.57
2024-02-18T21:11:27.938Z,15.87
2024-02-18T21:13:54.939Z,18.57
2024-02-18T21:16:21.432Z,14.90
2024-02-18T21:18:47.964Z,15.67
2024-02-18T21:21:17.000Z,15.57
2024-02-18T21:23:43.437Z,17.00
2024-02-18T21:26:09.863Z,20.60
2024-02-18T21:28:39.676Z,27.50
2024-02-18T21:31:07.903Z,19.93
2024-02-18T21:33:34.494Z,19.03
2024-02-18T21:36:00.927Z,16.00
2024-02-18T21:38:27.272Z,21.37
2024-02-18T21:40:53.626Z,19.83
2024-02-18T21:43:20.024Z,17.20
2024-02-18T21:45:46.512Z,16.73
2024-02-18T21:48:13.767Z,17.10
2024-02-18T21:50:40.207Z,15.87
2024-02-18T21:53:06.596Z,18.50
2024-02-18T21:55:33.264Z,15.50
2024-02-18T21:58:00.154Z,15.73
2024-02-18T22:00:26.512Z,18.90
2024-02-18T22:02:52.843Z,18.13
2024-02-18T22:05:20.026Z,17.03
2024-02-18T22:07:46.711Z,18.30
2024-02-18T22:10:13.275Z,20.10
2024-02-18T22:12:39.641Z,19.77
2024-02-18T22:15:06.423Z,19.33
2024-02-18T22:17:33.056Z,21.27
2024-02-18T22:19:59.561Z,22.23
2024-02-18T22:22:25.942Z,22.17
2024-02-18T22:24:52.334Z,20.50
2024-02-18T22:27:18.935Z,23.50
2024-02-18T22:29:45.497Z,21.53
2024-02-18T22:32:11.836Z,21.43
2024-02-18T22:34:38.269Z,21.57
2024-02-18T22:37:04.757Z,21.70
2024-02-18T22:39:31.168Z,20.77
2024-02-18T22:41:57.511Z,20.43
2024-02-18T22:44:23.832Z,21.17
2024-02-18T22:46:50.181Z,20.73
2024-02-18T22:49:16.525Z,21.37
2024-02-18T22:51:46.961Z,21.33
2024-02-18T22:54:13.467Z,22.53
2024-02-18T22:56:39.915Z,23.10
2024-02-18T22:59:06.407Z,22.67
2024-02-18T23:01:34.430Z,24.60
2024-02-18T23:04:00.860Z,23.33
2024-02-18T23:06:32.500Z,21.80
2024-02-18T23:08:59.159Z,21.57
2024-02-18T23:11:25.593Z,23.17
2024-02-18T23:13:52.087Z,20.43
2024-02-18T23:16:18.975Z,21.80
2024-02-18T23:18:45.588Z,22.63
2024-02-18T23:21:12.964Z,18.77
2024-02-18T23:23:40.301Z,20.40
2024-02-18T23:26:06.664Z,19.20
2024-02-18T23:28:33.043Z,20.00
2024-02-18T23:30:59.470Z,19.23
2024-02-18T23:33:26.207Z,18.20
2024-02-18T23:35:53.249Z,17.23
2024-02-18T23:38:20.190Z,18.83
2024-02-18T23:40:47.899Z,16.30
2024-02-18T23:43:21.492Z,17.03
2024-02-18T23:45:47.975Z,15.63
2024-02-18T23:48:14.477Z,15.03
2024-02-18T23:50:41.118Z,13.87
2024-02-18T23:53:07.879Z,15.57
2024-02-18T23:55:34.403Z,14.83
2024-02-18T23:58:00.836Z,14.70
